createdAt,value
2018-07-15T00:02:02.210Z,101607.88
2018-07-15T00:04:29.540Z,101603.55
2018-07-15T00:06:57.146Z,101604.20
2018-07-15T00:09:25.236Z,101602.71
2018-07-15T00:11:53.347Z,101603.41
2018-07-15T00:14:27.431Z,101599.54
2018-07-15T00:16:54.729Z,101606.71
2018-07-15T00:19:21.994Z,101606.39
2018-07-15T00:21:49.845Z,101604.19
2018-07-15T00:24:17.293Z,101596.59
2018-07-15T00:26:44.536Z,101596.96
2018-07-15T00:29:11.737Z,101603.80
2018-07-15T00:31:39.588Z,101593.34
2018-07-15T00:34:06.839Z,101598.80
2018-07-15T00:36:34.072Z,101600.33
2018-07-15T00:39:01.994Z,101600.18
2018-07-15T00:41:29.382Z,101600.88
2018-07-15T00:43:56.667Z,101602.45
2018-07-15T00:46:23.999Z,101597.27
2018-07-15T00:48:51.310Z,101596.23
2018-07-15T00:51:18.601Z,101598.14
2018-07-15T00:53:45.836Z,101600.91
2018-07-15T00:56:13.067Z,101591.12
2018-07-15T00:58:40.281Z,101593.49
2018-07-15T01:01:07.642Z,101589.47
2018-07-15T01:03:35.520Z,101589.66
2018-07-15T01:06:02.794Z,101575.23
2018-07-15T01:08:30.584Z,101594.91
2018-07-15T01:10:57.874Z,101574.06
2018-07-15T01:13:25.113Z,101590.74
2018-07-15T01:15:52.679Z,101595.31
2018-07-15T01:18:20.436Z,101591.11
2018-07-15T01:20:47.702Z,101587.92
2018-07-15T01:23:15.174Z,101585.91
2018-07-15T01:25:42.470Z,101586.48
2018-07-15T01:28:10.017Z,101567.16
2018-07-15T01:30:37.224Z,101584.66
2018-07-15T01:33:04.887Z,101587.20
2018-07-15T01:35:32.161Z,101576.59
2018-07-15T01:37:59.421Z,101582.67
2018-07-15T01:40:26.727Z,101580.66
2018-07-15T01:42:54.050Z,101577.48
2018-07-15T01:45:21.332Z,101573.58
2018-07-15T01:47:48.892Z,101577.62
2018-07-15T01:50:16.297Z,101568.54
2018-07-15T01:52:43.709Z,101563.50
2018-07-15T01:55:10.996Z,101564.52
2018-07-15T01:57:38.301Z,101562.33
2018-07-15T02:00:05.778Z,101565.36
2018-07-15T02:02:33.377Z,101548.43
2018-07-15T02:05:00.634Z,101566.41
2018-07-15T02:07:27.865Z,101562.41
2018-07-15T02:09:55.140Z,101568.50
2018-07-15T02:12:22.409Z,101568.17
2018-07-15T02:14:49.658Z,101567.35
2018-07-15T02:17:16.906Z,101566.03
2018-07-15T02:19:44.114Z,101561.31
2018-07-15T02:22:11.444Z,101564.52
2018-07-15T02:24:38.710Z,101561.01
2018-07-15T02:27:06.127Z,101556.12
2018-07-15T02:29:33.324Z,101559.84
2018-07-15T02:32:00.825Z,101562.05
2018-07-15T02:34:28.057Z,101561.88
2018-07-15T02:36:55.341Z,101557.84
2018-07-15T02:39:22.726Z,101555.71
2018-07-15T02:41:49.965Z,101556.05
2018-07-15T02:44:17.330Z,101553.21
2018-07-15T02:46:44.558Z,101556.59
2018-07-15T02:49:12.271Z,101558.27
2018-07-15T02:51:39.739Z,101554.91
2018-07-15T02:54:07.351Z,101549.69
2018-07-15T02:56:34.590Z,101551.87
2018-07-15T02:59:01.836Z,101551.57
2018-07-15T03:01:29.302Z,101542.30
2018-07-15T03:03:56.626Z,101545.51
2018-07-15T03:06:23.847Z,101534.08
2018-07-15T03:08:51.049Z,101531.73
2018-07-15T03:11:19.330Z,101536.82
2018-07-15T03:13:46.536Z,101535.98
2018-07-15T03:16:13.975Z,101530.25
2018-07-15T03:18:41.517Z,101529.26
2018-07-15T03:21:09.090Z,101526.56
2018-07-15T03:23:36.286Z,101527.58
2018-07-15T03:26:04.219Z,101526.23
2018-07-15T03:28:31.717Z,101526.58
2018-07-15T03:30:58.968Z,101522.20
2018-07-15T03:33:26.249Z,101524.23
2018-07-15T03:35:53.461Z,101522.70
2018-07-15T03:38:20.713Z,101521.53
2018-07-15T03:40:47.924Z,101524.56
2018-07-15T03:43:15.327Z,101517.66
2018-07-15T03:45:42.807Z,101521.55
2018-07-15T03:48:10.120Z,101521.89
2018-07-15T03:50:37.766Z,101512.80
2018-07-15T03:53:05.038Z,101519.88
2018-07-15T03:55:32.405Z,101514.66
2018-07-15T03:58:00.699Z,101511.63
2018-07-15T04:00:28.002Z,101512.13
2018-07-15T04:02:55.426Z,101508.09
2018-07-15T04:05:23.273Z,101505.72
2018-07-15T04:07:50.529Z,101505.72
2018-07-15T04:10:17.794Z,101491.77
2018-07-15T04:12:45.348Z,101515.83
2018-07-15T04:15:12.800Z,101512.11
2018-07-15T04:17:40.872Z,101511.27
2018-07-15T04:20:08.404Z,101512.80
2018-07-15T04:22:35.650Z,101514.81
2018-07-15T04:25:02.903Z,101508.07
2018-07-15T04:27:30.162Z,101497.81
2018-07-15T04:29:58.138Z,101510.75
2018-07-15T04:32:25.462Z,101511.06
2018-07-15T04:34:53.709Z,101512.92
2018-07-15T04:37:20.930Z,101507.34
2018-07-15T04:39:48.202Z,101511.22
2018-07-15T04:42:15.552Z,101511.20
2018-07-15T04:44:42.798Z,101515.42
2018-07-15T04:47:10.049Z,101499.59
2018-07-15T04:49:37.465Z,101510.80
2018-07-15T04:52:04.793Z,101510.12
2018-07-15T04:54:32.034Z,101508.73
2018-07-15T04:56:59.269Z,101509.73
2018-07-15T04:59:26.557Z,101513.06
2018-07-15T05:01:53.795Z,101516.91
2018-07-15T05:04:21.028Z,101513.86
2018-07-15T05:06:49.045Z,101516.66
2018-07-15T05:09:16.394Z,101514.44
2018-07-15T05:11:43.681Z,101512.40
2018-07-15T05:14:10.933Z,101522.09
2018-07-15T05:16:38.224Z,101517.77
2018-07-15T05:19:05.583Z,101517.56
2018-07-15T05:21:33.265Z,101520.56
2018-07-15T05:24:00.505Z,101522.35
2018-07-15T05:26:27.797Z,101520.42
2018-07-15T05:28:55.173Z,101514.91
2018-07-15T05:31:22.493Z,101516.00
2018-07-15T05:33:49.862Z,101520.78
2018-07-15T05:36:17.100Z,101523.36
2018-07-15T05:38:44.284Z,101527.84
2018-07-15T05:41:11.565Z,101527.95
2018-07-15T05:43:38.822Z,101525.91
2018-07-15T05:46:06.114Z,101529.50
2018-07-15T05:48:33.361Z,101531.87
2018-07-15T05:51:00.596Z,101529.77
2018-07-15T05:53:27.970Z,101539.13
2018-07-15T05:55:55.220Z,101543.55
2018-07-15T05:58:22.709Z,101537.80
2018-07-15T06:00:50.233Z,101539.17
2018-07-15T06:03:17.653Z,101543.63
2018-07-15T06:05:46.054Z,101538.84
2018-07-15T06:08:13.429Z,101540.72
2018-07-15T06:10:41.037Z,101542.84
2018-07-15T06:13:15.407Z,101540.14
2018-07-15T06:15:43.328Z,101542.06
2018-07-15T06:18:10.733Z,101540.32
2018-07-15T06:20:38.244Z,101542.08
2018-07-15T06:23:05.575Z,101547.85
2018-07-15T06:25:32.983Z,101541.77
2018-07-15T06:28:00.239Z,101539.03
2018-07-15T06:30:27.539Z,101538.98
2018-07-15T06:32:54.917Z,101534.95
2018-07-15T06:35:22.492Z,101540.66
2018-07-15T06:37:50.108Z,101534.63
2018-07-15T06:40:17.378Z,101538.41
2018-07-15T06:42:44.662Z,101541.92
2018-07-15T06:45:11.861Z,101548.20
2018-07-15T06:47:39.252Z,101544.05
2018-07-15T06:50:06.716Z,101545.26
2018-07-15T06:52:34.149Z,101547.04
2018-07-15T06:55:01.450Z,101548.63
2018-07-15T06:57:29.137Z,101551.13
2018-07-15T06:59:56.460Z,101545.47
2018-07-15T07:02:23.731Z,101543.80
2018-07-15T07:04:51.092Z,101546.52
2018-07-15T07:07:18.423Z,101546.90
2018-07-15T07:09:45.695Z,101547.86
2018-07-15T07:12:13.283Z,101538.91
2018-07-15T07:14:40.645Z,101538.66
2018-07-15T07:17:08.031Z,101536.23
2018-07-15T07:19:35.467Z,101540.52
2018-07-15T07:22:02.749Z,101530.41
2018-07-15T07:24:30.140Z,101535.57
2018-07-15T07:26:57.420Z,101528.97
2018-07-15T07:29:24.798Z,101536.23
2018-07-15T07:31:52.195Z,101535.40
2018-07-15T07:34:19.546Z,101534.75
2018-07-15T07:36:46.835Z,101536.69
2018-07-15T07:39:20.823Z,101534.17
2018-07-15T07:41:48.130Z,101542.44
2018-07-15T07:44:15.508Z,101538.02
2018-07-15T07:46:43.639Z,101551.11
2018-07-15T07:49:11.025Z,101548.08
2018-07-15T07:51:38.341Z,101543.53
2018-07-15T07:54:05.717Z,101541.89
2018-07-15T07:56:33.038Z,101545.56
2018-07-15T07:59:00.489Z,101559.05
2018-07-15T08:01:28.519Z,101564.11
2018-07-15T08:03:55.762Z,101555.86
2018-07-15T08:06:23.075Z,101554.97
2018-07-15T08:08:50.313Z,101561.72
2018-07-15T08:11:17.565Z,101544.48
2018-07-15T08:13:44.870Z,101547.38
2018-07-15T08:16:12.306Z,101544.64
2018-07-15T08:18:39.667Z,101538.97
2018-07-15T08:21:06.911Z,101540.69
2018-07-15T08:23:34.174Z,101534.25
2018-07-15T08:26:01.468Z,101545.19
2018-07-15T08:28:28.964Z,101538.78
2018-07-15T08:31:16.619Z,101541.42
2018-07-15T08:33:43.838Z,101541.31
2018-07-15T08:36:11.522Z,101531.97
2018-07-15T08:38:38.977Z,101542.34
2018-07-15T08:41:06.211Z,101537.12
2018-07-15T08:43:33.451Z,101541.09
2018-07-15T08:46:00.880Z,101532.19
2018-07-15T08:48:28.192Z,101533.19
2018-07-15T08:50:55.555Z,101530.75
2018-07-15T08:53:22.813Z,101525.73
2018-07-15T08:55:50.205Z,101518.09
2018-07-15T08:58:17.614Z,101520.72
2018-07-15T09:00:44.872Z,101521.03
2018-07-15T09:03:12.241Z,101523.23
2018-07-15T09:05:39.533Z,101528.30
2018-07-15T09:08:07.047Z,101514.32
2018-07-15T09:10:34.462Z,101520.94
2018-07-15T09:13:01.733Z,101519.16
2018-07-15T09:15:28.956Z,101517.30
2018-07-15T09:17:56.236Z,101514.73
2018-07-15T09:20:24.179Z,101512.20
2018-07-15T09:22:51.478Z,101507.81
2018-07-15T09:25:18.771Z,101508.00
2018-07-15T09:27:46.024Z,101505.50
2018-07-15T09:30:13.385Z,101500.05
2018-07-15T09:32:40.633Z,101498.37
2018-07-15T09:35:08.621Z,101498.77
2018-07-15T09:37:35.876Z,101502.28
2018-07-15T09:40:03.110Z,101500.59
2018-07-15T09:42:30.387Z,101500.30
2018-07-15T09:44:57.727Z,101499.52
2018-07-15T09:47:25.029Z,101499.98
2018-07-15T09:49:52.314Z,101497.13
2018-07-15T09:52:19.676Z,101500.02
2018-07-15T09:54:47.167Z,101496.56
2018-07-15T09:57:14.508Z,101494.17
2018-07-15T09:59:41.927Z,101497.20
2018-07-15T10:02:09.371Z,101495.52
2018-07-15T10:04:36.644Z,101494.09
2018-07-15T10:07:04.063Z,101483.44
2018-07-15T10:09:31.304Z,101486.78
2018-07-15T10:11:59.228Z,101484.86
2018-07-15T10:14:26.564Z,101485.38
2018-07-15T10:16:53.788Z,101484.24
2018-07-15T10:19:21.047Z,101487.01
2018-07-15T10:21:48.282Z,101489.91
2018-07-15T10:24:15.663Z,101492.45
2018-07-15T10:26:43.254Z,101480.75
2018-07-15T10:29:10.446Z,101484.36
2018-07-15T10:31:37.731Z,101474.91
2018-07-15T10:34:05.008Z,101481.41
2018-07-15T10:36:32.241Z,101478.86
2018-07-15T10:38:59.626Z,101481.75
2018-07-15T10:41:26.864Z,101482.62
2018-07-15T10:43:54.909Z,101477.98
2018-07-15T10:46:22.138Z,101477.00
2018-07-15T10:48:50.518Z,101470.66
2018-07-15T10:51:17.816Z,101468.39
2018-07-15T10:53:45.117Z,101467.52
2018-07-15T10:56:12.472Z,101466.39
2018-07-15T10:58:40.306Z,101467.33
2018-07-15T11:01:07.756Z,101460.67
2018-07-15T11:03:34.977Z,101458.18
2018-07-15T11:06:02.267Z,101461.38
2018-07-15T11:08:30.210Z,101460.56
2018-07-15T11:10:57.478Z,101450.41
2018-07-15T11:13:24.969Z,101448.75
2018-07-15T11:15:52.229Z,101454.23
2018-07-15T11:18:19.689Z,101451.63
2018-07-15T11:20:46.949Z,101446.24
2018-07-15T11:23:14.267Z,101443.65
2018-07-15T11:25:41.682Z,101445.38
2018-07-15T11:28:08.914Z,101438.44
2018-07-15T11:30:36.228Z,101432.95
2018-07-15T11:33:03.513Z,101438.09
2018-07-15T11:35:30.767Z,101434.89
2018-07-15T11:37:58.122Z,101436.89
2018-07-15T11:40:25.453Z,101428.82
2018-07-15T11:42:52.839Z,101425.86
2018-07-15T11:45:20.217Z,101426.21
2018-07-15T11:47:48.192Z,101427.94
2018-07-15T11:50:15.510Z,101428.31
2018-07-15T11:52:42.823Z,101423.75
2018-07-15T11:55:10.062Z,101425.30
2018-07-15T11:57:37.518Z,101414.18
2018-07-15T12:00:05.565Z,101418.33
2018-07-15T12:02:32.961Z,101413.81
2018-07-15T12:05:00.405Z,101405.77
2018-07-15T12:07:27.676Z,101402.61
2018-07-15T12:09:54.927Z,101391.97
2018-07-15T12:12:22.185Z,101398.95
2018-07-15T12:14:49.435Z,101393.77
2018-07-15T12:17:16.690Z,101389.49
2018-07-15T12:19:44.873Z,101386.31
2018-07-15T12:22:12.129Z,101380.44
2018-07-15T12:24:39.401Z,101378.45
2018-07-15T12:27:06.654Z,101379.17
2018-07-15T12:29:34.034Z,101375.60
2018-07-15T12:32:01.256Z,101371.80
2018-07-15T12:34:28.571Z,101362.47
2018-07-15T12:36:55.877Z,101362.59
2018-07-15T12:39:23.134Z,101369.09
2018-07-15T12:41:50.393Z,101367.75
2018-07-15T12:44:18.105Z,101361.79
2018-07-15T12:46:45.410Z,101366.64
2018-07-15T12:49:12.698Z,101362.18
2018-07-15T12:51:40.011Z,101357.70
2018-07-15T12:54:07.257Z,101354.83
2018-07-15T12:59:08.545Z,101354.47
2018-07-15T13:01:35.787Z,101346.53
2018-07-15T13:04:03.072Z,101351.84
2018-07-15T13:06:30.415Z,101343.10
2018-07-15T13:08:58.445Z,101336.73
2018-07-15T13:11:25.677Z,101330.62
2018-07-15T13:13:52.911Z,101318.82
2018-07-15T13:16:20.273Z,101327.44
2018-07-15T13:18:47.567Z,101316.97
2018-07-15T13:21:14.885Z,101304.41
2018-07-15T13:23:42.198Z,101311.74
2018-07-15T13:26:09.485Z,101306.09
2018-07-15T13:28:36.772Z,101307.32
2018-07-15T13:31:04.061Z,101308.04
2018-07-15T13:33:31.297Z,101307.30
2018-07-15T13:35:58.569Z,101302.14
2018-07-15T13:38:25.830Z,101306.35
2018-07-15T13:40:53.105Z,101299.01
2018-07-15T13:43:20.412Z,101301.27
2018-07-15T13:45:47.669Z,101297.89
2018-07-15T13:48:14.902Z,101296.23
2018-07-15T13:50:42.216Z,101297.75
2018-07-15T13:53:09.534Z,101297.59
2018-07-15T13:55:36.863Z,101289.73
2018-07-15T13:58:04.237Z,101290.66
2018-07-15T14:00:31.522Z,101293.28
2018-07-15T14:02:58.850Z,101291.08
2018-07-15T14:05:27.057Z,101279.27
2018-07-15T14:07:54.463Z,101294.03
2018-07-15T14:10:21.812Z,101282.94
2018-07-15T14:12:49.677Z,101275.66
2018-07-15T14:15:16.949Z,101277.07
2018-07-15T14:17:44.205Z,101267.20
2018-07-15T14:20:12.244Z,101268.49
2018-07-15T14:22:40.346Z,101268.13
2018-07-15T14:25:07.773Z,101266.28
2018-07-15T14:27:35.018Z,101270.44
2018-07-15T14:30:02.299Z,101266.09
2018-07-15T14:32:29.969Z,101265.30
2018-07-15T14:34:57.289Z,101265.95
2018-07-15T14:37:24.625Z,101267.53
2018-07-15T14:39:51.974Z,101266.53
2018-07-15T14:42:19.862Z,101273.92
2018-07-15T14:44:47.136Z,101273.49
2018-07-15T14:47:14.392Z,101262.99
2018-07-15T14:49:41.701Z,101261.86
2018-07-15T14:52:08.993Z,101261.51
2018-07-15T14:54:36.458Z,101256.95
2018-07-15T14:57:04.253Z,101258.74
2018-07-15T14:59:31.678Z,101257.17
2018-07-15T15:01:59.221Z,101250.28
2018-07-15T15:04:26.485Z,101257.75
2018-07-15T15:06:53.950Z,101246.69
2018-07-15T15:09:21.346Z,101257.90
2018-07-15T15:11:48.780Z,101251.91
2018-07-15T15:14:16.199Z,101247.06
2018-07-15T15:16:43.567Z,101246.06
2018-07-15T15:19:11.048Z,101242.72
2018-07-15T15:21:38.407Z,101240.81
2018-07-15T15:24:06.147Z,101240.31
2018-07-15T15:26:33.548Z,101233.53
2018-07-15T15:29:00.853Z,101233.05
2018-07-15T15:31:28.210Z,101231.18
2018-07-15T15:33:55.651Z,101233.93
2018-07-15T15:36:23.039Z,101228.42
2018-07-15T15:38:50.491Z,101231.49
2018-07-15T15:41:17.878Z,101227.33
2018-07-15T15:43:45.309Z,101222.64
2018-07-15T15:46:12.650Z,101222.38
2018-07-15T15:48:40.034Z,101219.61
2018-07-15T15:51:07.534Z,101223.16
2018-07-15T15:53:34.885Z,101222.92
2018-07-15T15:56:02.305Z,101217.94
2018-07-15T15:58:29.748Z,101212.25
2018-07-15T16:00:57.234Z,101213.11
2018-07-15T16:03:24.694Z,101212.80
2018-07-15T16:05:52.284Z,101205.12
2018-07-15T16:08:20.540Z,101208.44
2018-07-15T16:10:47.981Z,101200.21
2018-07-15T16:13:15.425Z,101202.69
2018-07-15T16:15:42.837Z,101198.24
2018-07-15T16:18:10.144Z,101194.68
2018-07-15T16:20:37.575Z,101197.16
2018-07-15T16:23:05.266Z,101195.77
2018-07-15T16:25:32.807Z,101199.08
2018-07-15T16:28:00.153Z,101189.94
2018-07-15T16:30:27.437Z,101186.49
2018-07-15T16:32:54.811Z,101188.73
2018-07-15T16:35:22.278Z,101188.49
2018-07-15T16:37:49.634Z,101184.32
2018-07-15T16:40:17.679Z,101186.62
2018-07-15T16:42:45.274Z,101182.70
2018-07-15T16:45:12.787Z,101180.77
2018-07-15T16:47:40.330Z,101174.62
2018-07-15T16:50:07.727Z,101178.22
2018-07-15T16:52:35.220Z,101178.43
2018-07-15T16:55:02.756Z,101169.94
2018-07-15T16:57:30.282Z,101173.53
2018-07-15T16:59:58.048Z,101170.73
2018-07-15T17:02:25.434Z,101169.11
2018-07-15T17:04:53.074Z,101164.00
2018-07-15T17:07:20.461Z,101173.30
2018-07-15T17:09:47.935Z,101170.11
2018-07-15T17:12:15.261Z,101164.64
2018-07-15T17:14:42.728Z,101161.53
2018-07-15T17:17:10.275Z,101162.02
2018-07-15T17:19:37.767Z,101154.09
2018-07-15T17:22:05.117Z,101151.17
2018-07-15T17:24:32.524Z,101158.12
2018-07-15T17:26:59.886Z,101153.20
2018-07-15T17:29:27.255Z,101155.58
2018-07-15T17:31:54.607Z,101153.81
2018-07-15T17:34:22.011Z,101163.97
2018-07-15T17:36:49.417Z,101156.74
2018-07-15T17:39:17.091Z,101163.09
2018-07-15T17:41:45.287Z,101158.59
2018-07-15T17:44:12.710Z,101156.81
2018-07-15T17:46:40.163Z,101156.44
2018-07-15T17:49:07.559Z,101158.48
2018-07-15T17:51:34.946Z,101156.17
2018-07-15T17:54:02.957Z,101161.89
2018-07-15T17:56:30.406Z,101163.42
2018-07-15T17:58:58.001Z,101166.80
2018-07-15T18:01:25.314Z,101168.41
2018-07-15T18:03:52.665Z,101170.92
2018-07-15T18:06:20.089Z,101168.45
2018-07-15T18:08:47.374Z,101169.29
2018-07-15T18:11:14.738Z,101168.38
2018-07-15T18:13:42.085Z,101168.60
2018-07-15T18:16:09.572Z,101168.51
2018-07-15T18:18:36.888Z,101169.91
2018-07-15T18:21:04.382Z,101169.75
2018-07-15T18:23:31.682Z,101171.66
2018-07-15T18:25:59.357Z,101169.43
2018-07-15T18:28:26.941Z,101167.77
2018-07-15T18:30:54.433Z,101174.53
2018-07-15T18:33:22.899Z,101167.58
2018-07-15T18:35:50.416Z,101173.00
2018-07-15T18:38:18.157Z,101172.87
2018-07-15T18:40:46.024Z,101174.38
2018-07-15T18:43:13.425Z,101172.05
2018-07-15T18:45:41.146Z,101179.81
2018-07-15T18:48:08.754Z,101172.55
2018-07-15T18:50:36.081Z,101179.69
2018-07-15T18:53:03.825Z,101177.44
2018-07-15T18:55:31.706Z,101173.20
2018-07-15T18:57:59.169Z,101173.56
2018-07-15T19:00:26.593Z,101173.72
2018-07-15T19:02:53.915Z,101181.41
2018-07-15T19:05:21.179Z,101176.99
2018-07-15T19:07:48.622Z,101179.95
2018-07-15T19:10:16.080Z,101183.23
2018-07-15T19:12:43.600Z,101185.56
2018-07-15T19:15:10.930Z,101184.84
2018-07-15T19:17:39.069Z,101189.37
2018-07-15T19:20:06.588Z,101182.61
2018-07-15T19:22:33.979Z,101187.11
2018-07-15T19:25:01.490Z,101183.42
2018-07-15T19:27:28.915Z,101190.36
2018-07-15T19:29:56.328Z,101192.73
2018-07-15T19:32:23.705Z,101195.34
2018-07-15T19:34:51.192Z,101193.03
2018-07-15T19:37:18.646Z,101193.13
2018-07-15T19:39:46.306Z,101199.23
2018-07-15T19:42:13.744Z,101206.41
2018-07-15T19:44:41.221Z,101207.59
2018-07-15T19:47:08.681Z,101208.39
2018-07-15T19:49:36.107Z,101209.33
2018-07-15T19:52:03.506Z,101209.60
2018-07-15T19:54:31.133Z,101218.19
2018-07-15T19:56:58.583Z,101215.28
2018-07-15T19:59:26.055Z,101213.42
2018-07-15T20:01:53.554Z,101214.57
2018-07-15T20:04:20.905Z,101221.19
2018-07-15T20:06:49.147Z,101218.34
2018-07-15T20:09:16.498Z,101220.40
2018-07-15T20:11:43.894Z,101225.30
2018-07-15T20:14:11.319Z,101224.63
2018-07-15T20:16:38.744Z,101216.52
2018-07-15T20:19:06.780Z,101222.70
2018-07-15T20:21:34.162Z,101227.09
2018-07-15T20:24:01.660Z,101223.00
2018-07-15T20:26:29.204Z,101226.41
2018-07-15T20:28:56.615Z,101225.50
2018-07-15T20:31:24.054Z,101222.92
2018-07-15T20:33:52.271Z,101226.10
2018-07-15T20:36:19.569Z,101225.11
2018-07-15T20:38:47.781Z,101226.87
2018-07-15T20:41:15.170Z,101219.91
2018-07-15T20:43:43.187Z,101227.92
2018-07-15T20:46:10.601Z,101218.23
2018-07-15T20:48:38.095Z,101224.27
2018-07-15T20:51:05.314Z,101224.98
2018-07-15T20:53:33.049Z,101222.36
2018-07-15T20:56:00.702Z,101228.88
2018-07-15T20:58:28.143Z,101230.90
2018-07-15T21:00:55.628Z,101228.48
2018-07-15T21:03:23.137Z,101228.32
2018-07-15T21:05:50.824Z,101227.23
2018-07-15T21:08:18.179Z,101219.43
2018-07-15T21:10:45.508Z,101219.52
2018-07-15T21:13:12.963Z,101225.93
2018-07-15T21:15:40.358Z,101225.76
2018-07-15T21:18:07.814Z,101218.26
2018-07-15T21:20:35.153Z,101216.81
2018-07-15T21:23:02.618Z,101218.08
2018-07-15T21:25:30.048Z,101212.47
2018-07-15T21:27:57.368Z,101210.66
2018-07-15T21:30:24.688Z,101208.38
2018-07-15T21:32:51.990Z,101209.87
2018-07-15T21:35:19.584Z,101211.05
2018-07-15T21:37:46.923Z,101209.83
2018-07-15T21:40:14.372Z,101208.66
2018-07-15T21:42:41.649Z,101201.98
2018-07-15T21:45:09.005Z,101203.55
2018-07-15T21:47:36.346Z,101201.85
2018-07-15T21:50:03.847Z,101202.07
2018-07-15T21:52:31.146Z,101203.44
2018-07-15T21:54:58.448Z,101206.06
2018-07-15T21:57:25.838Z,101210.67
2018-07-15T21:59:53.196Z,101200.53
2018-07-15T22:02:20.776Z,101208.77
2018-07-15T22:04:48.120Z,101203.14
2018-07-15T22:07:26.642Z,101204.72
2018-07-15T22:10:05.333Z,101205.90
2018-07-15T22:12:32.653Z,101204.14
2018-07-15T22:15:00.088Z,101203.52
2018-07-15T22:17:27.594Z,101203.86
2018-07-15T22:19:54.934Z,101207.94
2018-07-15T22:22:22.214Z,101208.22
2018-07-15T22:24:49.489Z,101200.71
2018-07-15T22:27:16.801Z,101206.36
2018-07-15T22:29:44.192Z,101205.12
2018-07-15T22:32:11.552Z,101201.48
2018-07-15T22:34:38.831Z,101205.77
2018-07-15T22:37:06.169Z,101194.71
2018-07-15T22:39:33.695Z,101201.50
2018-07-15T22:42:01.118Z,101200.80
2018-07-15T22:44:28.361Z,101209.47
2018-07-15T22:46:55.618Z,101205.61
2018-07-15T22:49:22.955Z,101200.32
2018-07-15T22:51:50.326Z,101196.36
2018-07-15T22:54:17.589Z,101200.53
2018-07-15T22:56:44.888Z,101200.44
2018-07-15T22:59:12.474Z,101195.95
2018-07-15T23:01:39.803Z,101188.82
2018-07-15T23:04:07.090Z,101195.20
2018-07-15T23:06:36.256Z,101185.91
2018-07-15T23:09:04.138Z,101191.98
2018-07-15T23:11:31.377Z,101181.86
2018-07-15T23:13:58.700Z,101181.14
2018-07-15T23:16:25.991Z,101183.02
2018-07-15T23:18:53.994Z,101174.80
2018-07-15T23:21:21.235Z,101174.09
2018-07-15T23:23:48.465Z,101177.75
2018-07-15T23:26:15.794Z,101176.08
2018-07-15T23:28:43.340Z,101171.59
2018-07-15T23:31:10.665Z,101173.79
2018-07-15T23:33:38.116Z,101173.79
2018-07-15T23:36:05.525Z,101177.86
2018-07-15T23:38:32.795Z,101176.61
2018-07-15T23:41:00.109Z,101171.59
2018-07-15T23:43:27.407Z,101177.77
2018-07-15T23:45:54.670Z,101174.21
2018-07-15T23:48:21.958Z,101172.23
2018-07-15T23:50:49.274Z,101169.42
2018-07-15T23:53:16.529Z,101169.94
2018-07-15T23:55:43.882Z,101169.84
2018-07-15T23:58:11.163Z,101170.36
